sensor_id;sensor_type;location;lat;lon;timestamp;pressure;altitude;pressure_sealevel;temperature;humidity
28626;BME280;18905;42.668;23.364;2022-08-25T00:01:41;94869.25;;;19.88;100.00
28626;BME280;18905;42.668;23.364;2022-08-25T00:04:11;94881.50;;;20.05;100.00
28626;BME280;18905;42.668;23.364;2022-08-25T00:06:42;94917.31;;;20.29;100.00
28626;BME280;18905;42.668;23.364;2022-08-25T00:09:10;94835.19;;;19.86;100.00
28626;BME280;18905;42.668;23.364;2022-08-25T00:11:40;94831.28;;;19.90;100.00
28626;BME280;18905;42.668;23.364;2022-08-25T00:14:11;94928.81;;;20.52;100.00
28626;BME280;18905;42.668;23.364;2022-08-25T00:16:37;94848.00;;;19.75;100.00
28626;BME280;18905;42.668;23.364;2022-08-25T00:19:13;94928.69;;;20.35;100.00
28626;BME280;18905;42.668;23.364;2022-08-25T00:21:40;94835.59;;;19.88;100.00
28626;BME280;18905;42.668;23.364;2022-08-25T00:24:07;94915.88;;;19.92;100.00
28626;BME280;18905;42.668;23.364;2022-08-25T00:26:33;94951.94;;;20.01;100.00
28626;BME280;18905;42.668;23.364;2022-08-25T00:28:59;94934.47;;;19.72;100.00
28626;BME280;18905;42.668;23.364;2022-08-25T00:31:24;94911.72;;;19.65;100.00
28626;BME280;18905;42.668;23.364;2022-08-25T00:33:50;94906.06;;;19.87;100.00
28626;BME280;18905;42.668;23.364;2022-08-25T00:36:17;94824.34;;;19.49;100.00
28626;BME280;18905;42.668;23.364;2022-08-25T00:38:45;94828.34;;;19.55;100.00
28626;BME280;18905;42.668;23.364;2022-08-25T00:41:16;94842.91;;;19.73;100.00
28626;BME280;18905;42.668;23.364;2022-08-25T00:43:55;94838.25;;;19.77;100.00
28626;BME280;18905;42.668;23.364;2022-08-25T00:46:25;94859.16;;;19.99;100.00
28626;BME280;18905;42.668;23.364;2022-08-25T00:48:56;94837.56;;;19.87;100.00
28626;BME280;18905;42.668;23.364;2022-08-25T00:51:38;94852.03;;;19.91;100.00
28626;BME280;18905;42.668;23.364;2022-08-25T00:54:06;94845.84;;;20.01;100.00
28626;BME280;18905;42.668;23.364;2022-08-25T00:56:32;94821.53;;;19.93;100.00
28626;BME280;18905;42.668;23.364;2022-08-25T00:58:59;94829.44;;;20.05;100.00
28626;BME280;18905;42.668;23.364;2022-08-25T01:01:27;94816.09;;;20.00;100.00
28626;BME280;18905;42.668;23.364;2022-08-25T01:03:52;94822.25;;;19.86;100.00
28626;BME280;18905;42.668;23.364;2022-08-25T01:06:18;94810.47;;;19.75;100.00
28626;BME280;18905;42.668;23.364;2022-08-25T01:08:44;94820.31;;;19.87;100.00
28626;BME280;18905;42.668;23.364;2022-08-25T01:11:10;94808.59;;;19.90;100.00
28626;BME280;18905;42.668;23.364;2022-08-25T01:13:43;94803.88;;;19.87;100.00
28626;BME280;18905;42.668;23.364;2022-08-25T01:16:10;94819.66;;;20.04;100.00
28626;BME280;18905;42.668;23.364;2022-08-25T01:18:55;94800.03;;;19.98;100.00
28626;BME280;18905;42.668;23.364;2022-08-25T01:21:23;94841.38;;;20.33;100.00
28626;BME280;18905;42.668;23.364;2022-08-25T01:23:50;94840.94;;;20.35;100.00
28626;BME280;18905;42.668;23.364;2022-08-25T01:26:21;94929.75;;;20.88;100.00
28626;BME280;18905;42.668;23.364;2022-08-25T01:28:48;94821.69;;;20.17;100.00
28626;BME280;18905;42.668;23.364;2022-08-25T01:31:34;94910.88;;;20.76;100.00
28626;BME280;18905;42.668;23.364;2022-08-25T01:34:04;94846.41;;;20.28;100.00
28626;BME280;18905;42.668;23.364;2022-08-25T01:36:30;94866.47;;;20.42;100.00
28626;BME280;18905;42.668;23.364;2022-08-25T01:38:56;94904.25;;;20.77;100.00
28626;BME280;18905;42.668;23.364;2022-08-25T01:43:54;94863.00;;;20.49;100.00
28626;BME280;18905;42.668;23.364;2022-08-25T01:46:20;94888.13;;;20.61;100.00
28626;BME280;18905;42.668;23.364;2022-08-25T01:48:46;94940.41;;;20.97;100.00
28626;BME280;18905;42.668;23.364;2022-08-25T01:51:14;94900.69;;;20.73;100.00
28626;BME280;18905;42.668;23.364;2022-08-25T01:53:40;94819.00;;;20.28;100.00
28626;BME280;18905;42.668;23.364;2022-08-25T01:56:14;94926.72;;;21.04;100.00
28626;BME280;18905;42.668;23.364;2022-08-25T01:58:44;94832.78;;;20.42;100.00
28626;BME280;18905;42.668;23.364;2022-08-25T02:01:18;94819.00;;;20.28;100.00
28626;BME280;18905;42.668;23.364;2022-08-25T02:03:48;94886.63;;;20.81;100.00
28626;BME280;18905;42.668;23.364;2022-08-25T02:06:40;94846.56;;;20.59;100.00
28626;BME280;18905;42.668;23.364;2022-08-25T02:09:12;94878.38;;;20.78;100.00
28626;BME280;18905;42.668;23.364;2022-08-25T02:11:41;94872.47;;;20.72;100.00
28626;BME280;18905;42.668;23.364;2022-08-25T02:14:08;94873.28;;;20.76;100.00
28626;BME280;18905;42.668;23.364;2022-08-25T02:16:36;94855.63;;;20.70;100.00
28626;BME280;18905;42.668;23.364;2022-08-25T02:19:04;94794.34;;;20.31;100.00
28626;BME280;18905;42.668;23.364;2022-08-25T02:21:31;94874.34;;;20.54;100.00
28626;BME280;18905;42.668;23.364;2022-08-25T02:23:56;94788.53;;;19.75;100.00
28626;BME280;18905;42.668;23.364;2022-08-25T02:26:22;94785.06;;;19.78;100.00
28626;BME280;18905;42.668;23.364;2022-08-25T02:28:48;94922.97;;;20.64;100.00
28626;BME280;18905;42.668;23.364;2022-08-25T02:31:17;94779.53;;;19.75;100.00
28626;BME280;18905;42.668;23.364;2022-08-25T02:33:42;94782.41;;;19.35;100.00
28626;BME280;18905;42.668;23.364;2022-08-25T02:36:08;94864.63;;;19.96;100.00
28626;BME280;18905;42.668;23.364;2022-08-25T02:38:34;94808.44;;;19.65;100.00
28626;BME280;18905;42.668;23.364;2022-08-25T02:41:11;94896.91;;;20.23;100.00
28626;BME280;18905;42.668;23.364;2022-08-25T02:43:39;94840.69;;;19.93;100.00
28626;BME280;18905;42.668;23.364;2022-08-25T02:46:06;94909.94;;;20.44;100.00
28626;BME280;18905;42.668;23.364;2022-08-25T02:48:31;94838.25;;;19.77;100.00
28626;BME280;18905;42.668;23.364;2022-08-25T02:50:59;94872.66;;;19.71;100.00
28626;BME280;18905;42.668;23.364;2022-08-25T02:53:26;94790.19;;;19.29;100.00
28626;BME280;18905;42.668;23.364;2022-08-25T02:55:52;94816.13;;;19.49;100.00
28626;BME280;18905;42.668;23.364;2022-08-25T02:58:17;94798.88;;;19.42;100.00
28626;BME280;18905;42.668;23.364;2022-08-25T03:00:43;94843.28;;;19.68;100.00
28626;BME280;18905;42.668;23.364;2022-08-25T03:03:10;94804.81;;;19.51;100.00
28626;BME280;18905;42.668;23.364;2022-08-25T03:05:36;94825.69;;;19.69;100.00
28626;BME280;18905;42.668;23.364;2022-08-25T03:08:02;94837.88;;;19.82;100.00
28626;BME280;18905;42.668;23.364;2022-08-25T03:10:27;94848.09;;;19.85;100.00
28626;BME280;18905;42.668;23.364;2022-08-25T03:12:53;94806.03;;;19.57;100.00
28626;BME280;18905;42.668;23.364;2022-08-25T03:15:18;94878.81;;;20.08;100.00
28626;BME280;18905;42.668;23.364;2022-08-25T03:17:45;94848.16;;;19.92;100.00
28626;BME280;18905;42.668;23.364;2022-08-25T03:20:10;94886.72;;;20.20;100.00
28626;BME280;18905;42.668;23.364;2022-08-25T03:22:36;94884.72;;;20.14;100.00
28626;BME280;18905;42.668;23.364;2022-08-25T03:25:03;94864.25;;;20.04;100.00
28626;BME280;18905;42.668;23.364;2022-08-25T03:27:47;94904.00;;;20.28;100.00
28626;BME280;18905;42.668;23.364;2022-08-25T03:30:14;94872.84;;;19.99;100.00
28626;BME280;18905;42.668;23.364;2022-08-25T03:32:40;94837.13;;;19.85;100.00
28626;BME280;18905;42.668;23.364;2022-08-25T03:35:07;94826.09;;;19.71;100.00
28626;BME280;18905;42.668;23.364;2022-08-25T03:37:33;94818.25;;;19.73;100.00
28626;BME280;18905;42.668;23.364;2022-08-25T03:39:59;94817.16;;;19.81;100.00
28626;BME280;18905;42.668;23.364;2022-08-25T03:42:25;94823.44;;;19.89;100.00
28626;BME280;18905;42.668;23.364;2022-08-25T03:44:51;94862.66;;;19.96;100.00
28626;BME280;18905;42.668;23.364;2022-08-25T03:47:16;94850.19;;;19.52;100.00
28626;BME280;18905;42.668;23.364;2022-08-25T03:49:42;94778.91;;;18.94;100.00
28626;BME280;18905;42.668;23.364;2022-08-25T03:52:07;94792.41;;;19.17;100.00
28626;BME280;18905;42.668;23.364;2022-08-25T03:54:33;94780.25;;;19.14;100.00
28626;BME280;18905;42.668;23.364;2022-08-25T03:56:59;94803.50;;;19.34;100.00
28626;BME280;18905;42.668;23.364;2022-08-25T03:59:24;94796.59;;;19.51;100.00
28626;BME280;18905;42.668;23.364;2022-08-25T04:01:51;94802.16;;;19.61;100.00
28626;BME280;18905;42.668;23.364;2022-08-25T04:04:17;94831.72;;;19.92;100.00
28626;BME280;18905;42.668;23.364;2022-08-25T04:06:43;94801.81;;;19.73;100.00
28626;BME280;18905;42.668;23.364;2022-08-25T04:09:09;94839.19;;;20.02;100.00
28626;BME280;18905;42.668;23.364;2022-08-25T04:11:35;94805.81;;;19.83;100.00
28626;BME280;18905;42.668;23.364;2022-08-25T04:14:01;94869.53;;;20.27;100.00
28626;BME280;18905;42.668;23.364;2022-08-25T04:16:29;94862.13;;;20.31;100.00
28626;BME280;18905;42.668;23.364;2022-08-25T04:18:57;94897.53;;;20.60;100.00
28626;BME280;18905;42.668;23.364;2022-08-25T04:21:24;94843.84;;;19.95;100.00
28626;BME280;18905;42.668;23.364;2022-08-25T04:23:51;94827.34;;;19.84;100.00
28626;BME280;18905;42.668;23.364;2022-08-25T04:28:45;94804.69;;;19.87;100.00
28626;BME280;18905;42.668;23.364;2022-08-25T04:31:12;94902.16;;;20.53;100.00
28626;BME280;18905;42.668;23.364;2022-08-25T04:33:41;94921.41;;;20.63;100.00
28626;BME280;18905;42.668;23.364;2022-08-25T04:36:09;94912.84;;;20.72;100.00
28626;BME280;18905;42.668;23.364;2022-08-25T04:38:36;94897.97;;;20.73;100.00
28626;BME280;18905;42.668;23.364;2022-08-25T04:41:04;94900.75;;;20.87;100.00
28626;BME280;18905;42.668;23.364;2022-08-25T04:43:31;94921.63;;;21.02;100.00
28626;BME280;18905;42.668;23.364;2022-08-25T04:45:57;94806.91;;;20.46;100.00
28626;BME280;18905;42.668;23.364;2022-08-25T04:48:23;94856.91;;;20.98;100.00
28626;BME280;18905;42.668;23.364;2022-08-25T04:50:49;94812.19;;;20.94;100.00
28626;BME280;18905;42.668;23.364;2022-08-25T04:53:14;94819.53;;;20.65;100.00
28626;BME280;18905;42.668;23.364;2022-08-25T04:55:43;94887.53;;;21.14;100.00
28626;BME280;18905;42.668;23.364;2022-08-25T04:58:09;94808.94;;;20.56;100.00
28626;BME280;18905;42.668;23.364;2022-08-25T05:00:36;94786.53;;;20.44;100.00
28626;BME280;18905;42.668;23.364;2022-08-25T05:03:03;94806.97;;;20.57;100.00
28626;BME280;18905;42.668;23.364;2022-08-25T05:05:29;94889.50;;;21.20;100.00
28626;BME280;18905;42.668;23.364;2022-08-25T05:07:55;94875.78;;;21.38;100.00
28626;BME280;18905;42.668;23.364;2022-08-25T05:10:21;94809.09;;;21.20;100.00
28626;BME280;18905;42.668;23.364;2022-08-25T05:12:46;94834.59;;;21.27;100.00
28626;BME280;18905;42.668;23.364;2022-08-25T05:15:12;94926.09;;;21.70;100.00
28626;BME280;18905;42.668;23.364;2022-08-25T05:17:56;94920.59;;;21.70;100.00
28626;BME280;18905;42.668;23.364;2022-08-25T05:20:22;94918.22;;;21.58;100.00
28626;BME280;18905;42.668;23.364;2022-08-25T05:22:48;94904.03;;;21.28;100.00
28626;BME280;18905;42.668;23.364;2022-08-25T05:25:13;94851.38;;;20.91;100.00
28626;BME280;18905;42.668;23.364;2022-08-25T05:27:40;94841.94;;;20.81;100.00
28626;BME280;18905;42.668;23.364;2022-08-25T05:30:07;94868.31;;;21.07;100.00
28626;BME280;18905;42.668;23.364;2022-08-25T05:32:33;94841.06;;;20.59;100.00
28626;BME280;18905;42.668;23.364;2022-08-25T05:34:58;94915.00;;;21.21;100.00
28626;BME280;18905;42.668;23.364;2022-08-25T05:37:24;94903.25;;;21.38;100.00
28626;BME280;18905;42.668;23.364;2022-08-25T05:39:49;94893.44;;;21.30;100.00
28626;BME280;18905;42.668;23.364;2022-08-25T05:42:14;94857.72;;;21.23;100.00
28626;BME280;18905;42.668;23.364;2022-08-25T05:44:40;94849.81;;;20.93;100.00
28626;BME280;18905;42.668;23.364;2022-08-25T05:47:06;94822.81;;;21.09;100.00
28626;BME280;18905;42.668;23.364;2022-08-25T05:49:32;94788.25;;;20.83;100.00
28626;BME280;18905;42.668;23.364;2022-08-25T05:51:58;94776.13;;;21.06;100.00
28626;BME280;18905;42.668;23.364;2022-08-25T05:54:23;94795.75;;;21.04;100.00
28626;BME280;18905;42.668;23.364;2022-08-25T05:56:49;94789.47;;;21.00;100.00
28626;BME280;18905;42.668;23.364;2022-08-25T05:59:15;94921.00;;;21.79;100.00
28626;BME280;18905;42.668;23.364;2022-08-25T06:01:41;94825.94;;;21.15;100.00
28626;BME280;18905;42.668;23.364;2022-08-25T06:04:25;94803.16;;;20.97;100.00
28626;BME280;18905;42.668;23.364;2022-08-25T06:06:51;94793.41;;;21.34;100.00
28626;BME280;18905;42.668;23.364;2022-08-25T06:09:19;94792.59;;;21.34;100.00
28626;BME280;18905;42.668;23.364;2022-08-25T06:11:46;94886.44;;;21.88;100.00
28626;BME280;18905;42.668;23.364;2022-08-25T06:14:12;94834.19;;;21.43;100.00
28626;BME280;18905;42.668;23.364;2022-08-25T06:16:38;94924.09;;;22.30;100.00
28626;BME280;18905;42.668;23.364;2022-08-25T06:19:05;94911.19;;;21.85;100.00
28626;BME280;18905;42.668;23.364;2022-08-25T06:21:31;94860.16;;;21.77;100.00
28626;BME280;18905;42.668;23.364;2022-08-25T06:23:57;94916.25;;;22.32;100.00
28626;BME280;18905;42.668;23.364;2022-08-25T06:26:23;94831.44;;;22.13;100.00
28626;BME280;18905;42.668;23.364;2022-08-25T06:28:49;94861.53;;;22.69;100.00
28626;BME280;18905;42.668;23.364;2022-08-25T06:31:15;94865.44;;;22.78;100.00
28626;BME280;18905;42.668;23.364;2022-08-25T06:33:42;94913.31;;;23.05;100.00
28626;BME280;18905;42.668;23.364;2022-08-25T06:36:08;94909.31;;;23.17;100.00
28626;BME280;18905;42.668;23.364;2022-08-25T06:38:34;94892.69;;;23.38;100.00
28626;BME280;18905;42.668;23.364;2022-08-25T06:41:04;94831.19;;;23.48;100.00
28626;BME280;18905;42.668;23.364;2022-08-25T06:43:31;94914.63;;;24.50;100.00
28626;BME280;18905;42.668;23.364;2022-08-25T06:45:57;94855.84;;;24.53;100.00
28626;BME280;18905;42.668;23.364;2022-08-25T06:48:23;94895.06;;;24.75;100.00
28626;BME280;18905;42.668;23.364;2022-08-25T06:50:48;94909.81;;;24.58;100.00
28626;BME280;18905;42.668;23.364;2022-08-25T06:53:14;94844.97;;;23.99;100.00
28626;BME280;18905;42.668;23.364;2022-08-25T06:55:39;94870.94;;;24.79;100.00
28626;BME280;18905;42.668;23.364;2022-08-25T06:58:05;94848.00;;;24.85;100.00
28626;BME280;18905;42.668;23.364;2022-08-25T07:00:31;94918.63;;;25.16;100.00
28626;BME280;18905;42.668;23.364;2022-08-25T07:02:57;94875.78;;;23.87;100.00
28626;BME280;18905;42.668;23.364;2022-08-25T07:05:25;94912.22;;;23.61;100.00
28626;BME280;18905;42.668;23.364;2022-08-25T07:07:51;94835.47;;;23.56;100.00
28626;BME280;18905;42.668;23.364;2022-08-25T07:10:16;94858.34;;;24.00;100.00
28626;BME280;18905;42.668;23.364;2022-08-25T07:12:42;94865.84;;;24.40;100.00
28626;BME280;18905;42.668;23.364;2022-08-25T07:15:07;94916.94;;;24.92;100.00
28626;BME280;18905;42.668;23.364;2022-08-25T07:17:33;94905.06;;;24.58;100.00
28626;BME280;18905;42.668;23.364;2022-08-25T07:19:58;94896.75;;;24.25;100.00
28626;BME280;18905;42.668;23.364;2022-08-25T07:22:24;94916.91;;;24.59;100.00
28626;BME280;18905;42.668;23.364;2022-08-25T07:24:49;94853.84;;;24.57;100.00
28626;BME280;18905;42.668;23.364;2022-08-25T07:27:15;94896.16;;;24.84;100.00
28626;BME280;18905;42.668;23.364;2022-08-25T07:29:41;94873.09;;;25.24;100.00
28626;BME280;18905;42.668;23.364;2022-08-25T07:32:06;94860.47;;;25.27;100.00
28626;BME280;18905;42.668;23.364;2022-08-25T07:34:32;94855.38;;;25.52;100.00
28626;BME280;18905;42.668;23.364;2022-08-25T07:37:17;94862.75;;;25.85;100.00
28626;BME280;18905;42.668;23.364;2022-08-25T07:39:42;94829.03;;;26.39;100.00
28626;BME280;18905;42.668;23.364;2022-08-25T07:42:08;94912.00;;;27.05;100.00
28626;BME280;18905;42.668;23.364;2022-08-25T07:44:33;94890.56;;;26.70;100.00
28626;BME280;18905;42.668;23.364;2022-08-25T07:46:59;94915.00;;;26.52;100.00
28626;BME280;18905;42.668;23.364;2022-08-25T07:49:25;94856.50;;;26.07;100.00
28626;BME280;18905;42.668;23.364;2022-08-25T07:51:52;94887.28;;;26.09;100.00
28626;BME280;18905;42.668;23.364;2022-08-25T07:54:19;94913.94;;;26.69;100.00
28626;BME280;18905;42.668;23.364;2022-08-25T07:56:44;94899.91;;;27.54;100.00
28626;BME280;18905;42.668;23.364;2022-08-25T07:59:10;94851.59;;;28.03;93.45
28626;BME280;18905;42.668;23.364;2022-08-25T08:01:36;94870.16;;;27.38;96.17
28626;BME280;18905;42.668;23.364;2022-08-25T08:04:02;94842.38;;;27.58;97.84
28626;BME280;18905;42.668;23.364;2022-08-25T08:06:28;94903.81;;;27.56;100.00
28626;BME280;18905;42.668;23.364;2022-08-25T08:08:54;94903.00;;;27.40;96.73
28626;BME280;18905;42.668;23.364;2022-08-25T08:11:26;94906.75;;;27.85;100.00
28626;BME280;18905;42.668;23.364;2022-08-25T08:13:53;94904.53;;;28.44;83.83
28626;BME280;18905;42.668;23.364;2022-08-25T08:16:21;94840.81;;;27.73;89.35
28626;BME280;18905;42.668;23.364;2022-08-25T08:18:47;94885.84;;;28.28;95.77
28626;BME280;18905;42.668;23.364;2022-08-25T08:21:31;94887.16;;;28.40;90.54
28626;BME280;18905;42.668;23.364;2022-08-25T08:23:58;94884.41;;;29.13;83.29
28626;BME280;18905;42.668;23.364;2022-08-25T08:26:23;94842.81;;;29.22;80.22
28626;BME280;18905;42.668;23.364;2022-08-25T08:28:50;94796.31;;;27.80;85.52
28626;BME280;18905;42.668;23.364;2022-08-25T08:31:18;94881.09;;;28.45;81.47
28626;BME280;18905;42.668;23.364;2022-08-25T08:33:45;94826.03;;;28.97;77.38
28626;BME280;18905;42.668;23.364;2022-08-25T08:36:11;94876.59;;;29.62;71.47
28626;BME280;18905;42.668;23.364;2022-08-25T08:38:38;94825.59;;;28.58;74.10
28626;BME280;18905;42.668;23.364;2022-08-25T08:52:39;94873.13;;;27.99;82.85
28626;BME280;18905;42.668;23.364;2022-08-25T08:55:14;94868.69;;;28.78;74.64
28626;BME280;18905;42.668;23.364;2022-08-25T08:57:44;94870.25;;;29.08;65.90
28626;BME280;18905;42.668;23.364;2022-08-25T09:00:12;94817.16;;;27.68;71.28
28626;BME280;18905;42.668;23.364;2022-08-25T09:03:06;94751.19;;;27.44;70.92
28626;BME280;18905;42.668;23.364;2022-08-25T09:05:37;94802.69;;;28.53;71.40
28626;BME280;18905;42.668;23.364;2022-08-25T09:08:10;94851.16;;;28.20;69.16
28626;BME280;18905;42.668;23.364;2022-08-25T09:16:56;94801.56;;;27.74;67.78
28626;BME280;18905;42.668;23.364;2022-08-25T09:25:22;94809.56;;;27.37;67.15
28626;BME280;18905;42.668;23.364;2022-08-25T09:30:23;94859.66;;;27.30;68.31
28626;BME280;18905;42.668;23.364;2022-08-25T09:32:54;94862.59;;;26.84;72.56
28626;BME280;18905;42.668;23.364;2022-08-25T09:35:29;94802.47;;;26.42;73.85
28626;BME280;18905;42.668;23.364;2022-08-25T09:37:56;94866.63;;;26.37;71.86
28626;BME280;18905;42.668;23.364;2022-08-25T09:40:23;94775.56;;;25.77;76.13
28626;BME280;18905;42.668;23.364;2022-08-25T09:42:55;94856.50;;;26.27;76.66
28626;BME280;18905;42.668;23.364;2022-08-25T09:45:31;94821.03;;;25.99;74.68
28626;BME280;18905;42.668;23.364;2022-08-25T09:47:58;94771.63;;;25.78;69.25
28626;BME280;18905;42.668;23.364;2022-08-25T09:50:23;94844.50;;;26.14;70.77
28626;BME280;18905;42.668;23.364;2022-08-25T09:52:49;94759.47;;;25.95;70.71
28626;BME280;18905;42.668;23.364;2022-08-25T09:55:24;94833.56;;;26.07;69.88
28626;BME280;18905;42.668;23.364;2022-08-25T09:57:54;94767.56;;;25.36;71.04
28626;BME280;18905;42.668;23.364;2022-08-25T10:03:09;94839.69;;;25.45;76.44
28626;BME280;18905;42.668;23.364;2022-08-25T10:10:58;94772.63;;;24.85;80.16
28626;BME280;18905;42.668;23.364;2022-08-25T10:13:45;94860.13;;;25.78;80.83
28626;BME280;18905;42.668;23.364;2022-08-25T10:16:26;94795.81;;;25.97;76.20
28626;BME280;18905;42.668;23.364;2022-08-25T10:19:08;94849.56;;;27.00;73.16
28626;BME280;18905;42.668;23.364;2022-08-25T10:21:36;94787.50;;;26.78;70.87
28626;BME280;18905;42.668;23.364;2022-08-25T10:24:03;94786.25;;;27.18;68.93
28626;BME280;18905;42.668;23.364;2022-08-25T10:26:54;94827.34;;;27.39;67.52
28626;BME280;18905;42.668;23.364;2022-08-25T10:29:50;94847.91;;;27.58;64.57
28626;BME280;18905;42.668;23.364;2022-08-25T10:34:54;94842.69;;;28.85;64.67
28626;BME280;18905;42.668;23.364;2022-08-25T10:40:21;94831.88;;;27.49;62.13
28626;BME280;18905;42.668;23.364;2022-08-25T10:43:04;94763.47;;;27.27;60.61
28626;BME280;18905;42.668;23.364;2022-08-25T10:45:37;94816.22;;;27.75;56.60
28626;BME280;18905;42.668;23.364;2022-08-25T10:54:19;94815.66;;;28.28;55.99
28626;BME280;18905;42.668;23.364;2022-08-25T10:57:01;94790.13;;;28.78;55.18
28626;BME280;18905;42.668;23.364;2022-08-25T11:05:06;94816.63;;;28.66;56.10
28626;BME280;18905;42.668;23.364;2022-08-25T11:07:41;94788.91;;;27.89;58.17
28626;BME280;18905;42.668;23.364;2022-08-25T11:10:16;94805.97;;;27.56;59.73
28626;BME280;18905;42.668;23.364;2022-08-25T11:12:55;94753.88;;;27.31;61.74
28626;BME280;18905;42.668;23.364;2022-08-25T11:15:32;94734.47;;;26.96;62.16
28626;BME280;18905;42.668;23.364;2022-08-25T11:18:08;94743.69;;;27.09;62.13
28626;BME280;18905;42.668;23.364;2022-08-25T11:23:27;94794.44;;;27.06;66.20
28626;BME280;18905;42.668;23.364;2022-08-25T11:26:11;94739.41;;;26.88;66.58
28626;BME280;18905;42.668;23.364;2022-08-25T11:28:51;94783.25;;;26.74;67.89
28626;BME280;18905;42.668;23.364;2022-08-25T11:31:20;94744.59;;;26.86;66.99
28626;BME280;18905;42.668;23.364;2022-08-25T11:33:48;94668.25;;;26.30;65.86
28626;BME280;18905;42.668;23.364;2022-08-25T11:36:30;94777.25;;;26.95;63.98
28626;BME280;18905;42.668;23.364;2022-08-25T11:52:02;94679.66;;;26.71;63.12
28626;BME280;18905;42.668;23.364;2022-08-25T11:54:35;94759.97;;;27.90;62.37
28626;BME280;18905;42.668;23.364;2022-08-25T11:57:09;94660.63;;;26.89;60.74
28626;BME280;18905;42.668;23.364;2022-08-25T12:02:44;94757.59;;;27.25;61.44
28626;BME280;18905;42.668;23.364;2022-08-25T12:11:03;94750.84;;;27.42;60.23
28626;BME280;18905;42.668;23.364;2022-08-25T12:16:37;94758.81;;;27.40;64.22
28626;BME280;18905;42.668;23.364;2022-08-25T12:21:47;94748.75;;;27.46;59.89
28626;BME280;18905;42.668;23.364;2022-08-25T12:24:14;94704.22;;;27.37;59.82
28626;BME280;18905;42.668;23.364;2022-08-25T12:29:39;94671.81;;;27.66;57.23
28626;BME280;18905;42.668;23.364;2022-08-25T12:35:09;94757.56;;;28.21;56.96
28626;BME280;18905;42.668;23.364;2022-08-25T12:37:57;94749.63;;;27.59;56.85
28626;BME280;18905;42.668;23.364;2022-08-25T12:40:29;94706.00;;;26.95;58.46
28626;BME280;18905;42.668;23.364;2022-08-25T12:43:05;94701.50;;;26.85;58.96
28626;BME280;18905;42.668;23.364;2022-08-25T12:45:40;94749.28;;;27.73;56.05
28626;BME280;18905;42.668;23.364;2022-08-25T12:51:02;94718.59;;;27.16;58.44
28626;BME280;18905;42.668;23.364;2022-08-25T12:53:34;94753.38;;;27.01;59.29
28626;BME280;18905;42.668;23.364;2022-08-25T12:56:31;94690.94;;;26.80;58.70
28626;BME280;18905;42.668;23.364;2022-08-25T12:59:07;94734.72;;;27.21;58.44
28626;BME280;18905;42.668;23.364;2022-08-25T13:10:47;94764.16;;;27.15;58.23
28626;BME280;18905;42.668;23.364;2022-08-25T13:16:05;94755.34;;;27.20;58.70
28626;BME280;18905;42.668;23.364;2022-08-25T13:18:37;94699.97;;;26.65;60.76
28626;BME280;18905;42.668;23.364;2022-08-25T13:21:05;94758.53;;;27.18;60.48
28626;BME280;18905;42.668;23.364;2022-08-25T13:23:35;94728.25;;;27.08;60.07
28626;BME280;18905;42.668;23.364;2022-08-25T13:26:02;94676.03;;;26.90;58.32
28626;BME280;18905;42.668;23.364;2022-08-25T13:28:33;94688.41;;;26.86;58.28
28626;BME280;18905;42.668;23.364;2022-08-25T13:31:15;94687.63;;;26.85;57.94
28626;BME280;18905;42.668;23.364;2022-08-25T13:33:53;94743.97;;;27.30;59.11
28626;BME280;18905;42.668;23.364;2022-08-25T13:36:19;94694.91;;;27.11;58.74
28626;BME280;18905;42.668;23.364;2022-08-25T13:39:12;94749.59;;;27.11;58.90
28626;BME280;18905;42.668;23.364;2022-08-25T13:41:46;94748.78;;;26.94;60.30
28626;BME280;18905;42.668;23.364;2022-08-25T13:44:13;94677.50;;;26.95;58.85
28626;BME280;18905;42.668;23.364;2022-08-25T13:46:41;94621.75;;;26.77;58.36
28626;BME280;18905;42.668;23.364;2022-08-25T13:49:08;94699.16;;;27.00;59.92
28626;BME280;18905;42.668;23.364;2022-08-25T13:51:34;94624.50;;;26.61;60.98
28626;BME280;18905;42.668;23.364;2022-08-25T13:54:07;94703.31;;;27.08;60.00
28626;BME280;18905;42.668;23.364;2022-08-25T13:56:36;94682.56;;;26.64;59.81
28626;BME280;18905;42.668;23.364;2022-08-25T13:59:05;94704.63;;;26.68;59.37
28626;BME280;18905;42.668;23.364;2022-08-25T14:01:34;94638.22;;;26.48;60.33
28626;BME280;18905;42.668;23.364;2022-08-25T14:09:39;94734.72;;;27.21;58.09
28626;BME280;18905;42.668;23.364;2022-08-25T14:12:05;94747.09;;;27.48;56.96
28626;BME280;18905;42.668;23.364;2022-08-25T14:14:33;94619.81;;;26.58;58.16
28626;BME280;18905;42.668;23.364;2022-08-25T14:17:06;94678.03;;;26.90;59.17
28626;BME280;18905;42.668;23.364;2022-08-25T14:19:33;94652.16;;;26.80;60.30
28626;BME280;18905;42.668;23.364;2022-08-25T14:21:59;94668.09;;;26.57;57.19
28626;BME280;18905;42.668;23.364;2022-08-25T14:24:31;94653.50;;;26.37;57.76
28626;BME280;18905;42.668;23.364;2022-08-25T14:26:57;94694.44;;;26.45;57.43
28626;BME280;18905;42.668;23.364;2022-08-25T14:29:23;94636.41;;;26.22;56.87
28626;BME280;18905;42.668;23.364;2022-08-25T14:31:49;94639.19;;;26.38;57.90
28626;BME280;18905;42.668;23.364;2022-08-25T14:34:25;94630.84;;;26.42;58.13
28626;BME280;18905;42.668;23.364;2022-08-25T14:36:51;94722.00;;;26.88;58.07
28626;BME280;18905;42.668;23.364;2022-08-25T14:39:17;94648.06;;;26.69;59.28
28626;BME280;18905;42.668;23.364;2022-08-25T14:41:43;94721.94;;;26.91;58.53
28626;BME280;18905;42.668;23.364;2022-08-25T14:44:11;94719.88;;;26.60;58.34
28626;BME280;18905;42.668;23.364;2022-08-25T14:46:41;94665.81;;;26.52;58.56